createdAt,value
2018-07-07T00:02:24.547Z,16.50
2018-07-07T00:04:55.207Z,16.50
2018-07-07T00:07:25.813Z,16.40
2018-07-07T00:09:56.428Z,16.50
2018-07-07T00:14:57.131Z,16.50
2018-07-07T00:17:27.727Z,16.60
2018-07-07T00:19:58.376Z,16.70
2018-07-07T00:22:29.288Z,16.60
2018-07-07T00:25:00.012Z,16.70
2018-07-07T00:27:30.561Z,16.70
2018-07-07T00:30:01.203Z,16.80
2018-07-07T00:32:32.772Z,16.80
2018-07-07T00:35:03.384Z,16.80
2018-07-07T00:37:34.091Z,16.80
2018-07-07T00:40:05.248Z,16.90
2018-07-07T00:45:06.375Z,17.00
2018-07-07T00:47:37.260Z,16.90
2018-07-07T00:50:12.353Z,17.00
2018-07-07T00:52:42.895Z,16.90
2018-07-07T00:55:13.579Z,17.00
2018-07-07T00:57:44.129Z,17.00
2018-07-07T01:00:14.780Z,17.10
2018-07-07T01:02:45.281Z,17.20
2018-07-07T01:05:35.072Z,17.20
2018-07-07T01:08:06.070Z,17.20
2018-07-07T01:10:36.778Z,17.20
2018-07-07T01:13:07.293Z,17.20
2018-07-07T01:18:09.092Z,17.10
2018-07-07T01:20:40.153Z,17.10
2018-07-07T01:23:10.884Z,17.00
2018-07-07T01:25:41.541Z,17.00
2018-07-07T01:28:12.102Z,16.90
2018-07-07T01:30:42.849Z,16.80
2018-07-07T01:35:44.434Z,16.80
2018-07-07T01:40:45.050Z,16.80
2018-07-07T01:43:15.818Z,16.70
2018-07-07T01:45:46.345Z,16.70
2018-07-07T01:48:16.959Z,16.80
2018-07-07T01:53:17.728Z,16.80
2018-07-07T01:55:48.449Z,16.70
2018-07-07T02:03:19.528Z,16.70
2018-07-07T02:08:20.330Z,16.70
2018-07-07T02:10:50.960Z,16.70
2018-07-07T02:13:25.893Z,16.70
2018-07-07T02:15:56.502Z,16.60
2018-07-07T02:18:31.591Z,16.50
2018-07-07T02:21:03.411Z,16.20
2018-07-07T02:23:34.323Z,16.00
2018-07-07T02:26:04.880Z,16.00
2018-07-07T02:28:35.567Z,15.90
2018-07-07T02:31:06.506Z,16.00
2018-07-07T02:36:07.200Z,16.20
2018-07-07T02:38:37.701Z,16.20
2018-07-07T02:41:08.349Z,16.30
2018-07-07T02:43:38.924Z,16.40
2018-07-07T02:46:09.923Z,16.50
2018-07-07T02:48:40.513Z,16.50
2018-07-07T02:51:11.168Z,16.60
2018-07-07T02:53:42.256Z,16.50
2018-07-07T02:56:13.359Z,16.60
2018-07-07T03:01:14.161Z,16.80
2018-07-07T03:03:44.737Z,17.00
2018-07-07T03:06:15.437Z,17.10
2018-07-07T03:08:46.455Z,17.10
2018-07-07T03:11:17.052Z,17.20
2018-07-07T03:13:47.687Z,17.20
2018-07-07T03:16:18.291Z,17.20
2018-07-07T03:18:48.947Z,17.20
2018-07-07T03:21:19.605Z,17.20
2018-07-07T03:23:50.273Z,17.30
2018-07-07T03:31:21.409Z,17.30
2018-07-07T03:33:51.872Z,17.30
2018-07-07T03:36:22.938Z,17.20
2018-07-07T03:41:25.756Z,17.10
2018-07-07T03:43:56.403Z,17.10
2018-07-07T03:46:26.991Z,17.20
2018-07-07T03:51:28.888Z,17.20
2018-07-07T03:53:59.524Z,17.20
2018-07-07T03:56:30.116Z,17.20
2018-07-07T03:59:00.741Z,17.20
2018-07-07T04:01:31.543Z,17.20
2018-07-07T04:04:02.260Z,17.40
2018-07-07T04:06:33.055Z,17.50
2018-07-07T04:09:03.822Z,17.50
2018-07-07T04:11:34.457Z,17.50
2018-07-07T04:14:05.161Z,17.60
2018-07-07T04:16:35.802Z,17.70
2018-07-07T04:21:36.401Z,17.90
2018-07-07T04:24:06.989Z,18.00
2018-07-07T04:26:37.791Z,18.10
2018-07-07T04:29:08.333Z,18.20
2018-07-07T04:31:38.807Z,18.40
2018-07-07T04:34:10.054Z,18.60
2018-07-07T04:36:40.600Z,18.80
2018-07-07T04:39:11.282Z,18.90
2018-07-07T04:41:41.934Z,19.10
2018-07-07T04:44:12.770Z,19.10
2018-07-07T04:46:43.587Z,19.20
2018-07-07T04:49:14.266Z,19.20
2018-07-07T04:51:45.848Z,19.30
2018-07-07T04:54:16.448Z,19.30
2018-07-07T04:56:47.990Z,19.40
2018-07-07T04:59:18.603Z,19.50
2018-07-07T05:04:20.127Z,19.60
2018-07-07T05:06:50.709Z,19.70
2018-07-07T05:09:21.358Z,19.80
2018-07-07T05:11:52.310Z,19.80
2018-07-07T05:14:22.865Z,20.00
2018-07-07T05:16:54.180Z,20.30
2018-07-07T05:19:24.735Z,20.40
2018-07-07T05:21:56.289Z,20.60
2018-07-07T05:24:26.959Z,20.80
2018-07-07T05:26:57.925Z,21.00
2018-07-07T05:29:28.464Z,21.10
2018-07-07T05:31:59.203Z,21.30
2018-07-07T05:34:29.905Z,21.60
2018-07-07T05:37:00.490Z,22.30
2018-07-07T05:39:31.159Z,22.90
2018-07-07T05:42:01.764Z,23.00
2018-07-07T05:44:32.409Z,23.00
2018-07-07T05:47:03.028Z,23.00
2018-07-07T05:49:34.172Z,23.90
2018-07-07T05:52:05.227Z,25.00
2018-07-07T05:54:35.921Z,26.10
2018-07-07T05:57:06.691Z,27.10
2018-07-07T05:59:37.381Z,28.00
2018-07-07T06:02:07.944Z,28.40
2018-07-07T06:04:38.439Z,28.60
2018-07-07T06:07:09.012Z,29.40
2018-07-07T06:09:39.576Z,29.50
2018-07-07T06:12:10.054Z,29.40
2018-07-07T06:14:40.842Z,29.10
2018-07-07T06:17:11.561Z,28.80
2018-07-07T06:19:42.179Z,28.50
2018-07-07T06:22:12.997Z,28.70
2018-07-07T06:24:43.468Z,29.30
2018-07-07T06:27:14.068Z,29.90
2018-07-07T06:29:44.712Z,29.80
2018-07-07T06:32:15.341Z,29.70
2018-07-07T06:34:45.827Z,30.30
2018-07-07T06:37:16.625Z,31.00
2018-07-07T06:39:47.256Z,31.90
2018-07-07T06:42:17.922Z,32.90
2018-07-07T06:44:48.667Z,33.20
2018-07-07T06:47:19.445Z,33.20
2018-07-07T06:49:50.071Z,33.60
2018-07-07T06:52:20.531Z,34.10
2018-07-07T06:54:51.642Z,33.70
2018-07-07T06:57:22.206Z,33.60
2018-07-07T06:59:52.801Z,33.60
2018-07-07T07:02:23.479Z,33.30
2018-07-07T07:04:54.133Z,33.20
2018-07-07T07:07:24.831Z,32.80
2018-07-07T07:09:55.530Z,32.20
2018-07-07T07:12:26.104Z,32.00
2018-07-07T07:14:56.892Z,32.40
2018-07-07T07:17:27.559Z,32.60
2018-07-07T07:19:58.471Z,32.80
2018-07-07T07:22:29.168Z,33.00
2018-07-07T07:24:59.681Z,33.40
2018-07-07T07:27:30.685Z,34.50
2018-07-07T07:30:01.457Z,35.30
2018-07-07T07:32:32.157Z,35.60
2018-07-07T07:35:02.809Z,36.20
2018-07-07T07:37:33.247Z,36.60
2018-07-07T07:40:03.922Z,36.40
2018-07-07T07:42:35.134Z,37.30
2018-07-07T07:45:05.841Z,37.30
2018-07-07T07:47:36.556Z,37.50
2018-07-07T07:50:07.810Z,38.30
2018-07-07T07:52:38.336Z,39.10
2018-07-07T07:55:09.156Z,39.60
2018-07-07T07:57:39.822Z,39.60
2018-07-07T08:00:10.527Z,39.60
2018-07-07T08:02:41.110Z,39.80
2018-07-07T08:05:11.785Z,40.20
2018-07-07T08:07:42.945Z,39.90
2018-07-07T08:10:13.651Z,40.50
2018-07-07T08:12:44.231Z,40.70
2018-07-07T08:15:14.952Z,39.80
2018-07-07T08:17:45.392Z,39.60
2018-07-07T08:20:16.090Z,39.60
2018-07-07T08:22:46.874Z,39.80
2018-07-07T08:25:17.671Z,38.80
2018-07-07T08:27:48.441Z,37.20
2018-07-07T08:30:19.157Z,36.30
2018-07-07T08:32:49.953Z,35.70
2018-07-07T08:35:27.436Z,35.40
2018-07-07T08:37:58.713Z,35.40
2018-07-07T08:40:29.458Z,36.50
2018-07-07T08:43:00.642Z,37.70
2018-07-07T08:45:31.298Z,38.20
2018-07-07T08:48:02.025Z,39.50
2018-07-07T08:50:32.668Z,40.30
2018-07-07T08:53:03.250Z,41.00
2018-07-07T08:55:33.894Z,41.10
2018-07-07T08:58:04.716Z,40.10
2018-07-07T09:00:35.358Z,40.00
2018-07-07T09:03:07.661Z,40.30
2018-07-07T09:05:38.231Z,41.00
2018-07-07T09:08:08.768Z,40.60
2018-07-07T09:10:39.360Z,39.20
2018-07-07T09:13:09.997Z,38.90
2018-07-07T09:15:40.490Z,38.70
2018-07-07T09:18:11.249Z,39.60
2018-07-07T09:20:41.875Z,38.90
2018-07-07T09:23:12.535Z,37.80
2018-07-07T09:25:43.172Z,36.20
2018-07-07T09:28:13.696Z,35.80
2018-07-07T09:30:44.509Z,35.90
2018-07-07T09:33:14.950Z,35.80
2018-07-07T09:35:45.462Z,35.50
2018-07-07T09:38:15.984Z,35.00
2018-07-07T09:40:46.648Z,33.90
2018-07-07T09:43:17.216Z,33.80
2018-07-07T09:45:48.810Z,34.60
2018-07-07T09:48:19.560Z,35.20
2018-07-07T09:50:50.131Z,35.60
2018-07-07T09:53:20.980Z,35.40
2018-07-07T09:55:51.672Z,34.60
2018-07-07T09:58:22.993Z,34.20
2018-07-07T10:00:53.564Z,33.50
2018-07-07T10:03:24.178Z,33.30
2018-07-07T10:05:54.788Z,32.80
2018-07-07T10:08:25.636Z,33.00
2018-07-07T10:10:56.259Z,32.90
2018-07-07T10:13:26.943Z,32.80
2018-07-07T10:15:57.565Z,32.30
2018-07-07T10:18:28.204Z,32.20
2018-07-07T10:20:58.974Z,31.90
2018-07-07T10:23:29.733Z,31.80
2018-07-07T10:26:00.837Z,32.30
2018-07-07T10:28:31.515Z,33.60
2018-07-07T10:36:02.721Z,33.50
2018-07-07T10:38:33.317Z,33.30
2018-07-07T10:41:03.889Z,32.90
2018-07-07T10:43:34.611Z,31.90
2018-07-07T10:46:05.703Z,31.20
2018-07-07T10:48:36.292Z,30.20
2018-07-07T10:51:07.494Z,30.90
2018-07-07T10:53:38.150Z,31.90
2018-07-07T10:56:08.847Z,33.20
2018-07-07T10:58:39.588Z,34.10
2018-07-07T11:01:10.442Z,33.60
2018-07-07T11:03:41.215Z,32.50
2018-07-07T11:06:11.967Z,32.00
2018-07-07T11:08:42.708Z,31.20
2018-07-07T11:11:13.401Z,30.60
2018-07-07T11:13:44.232Z,30.40
2018-07-07T11:16:16.047Z,30.30
2018-07-07T11:18:46.608Z,30.50
2018-07-07T11:21:17.778Z,30.80
2018-07-07T11:23:48.340Z,31.10
2018-07-07T11:26:18.937Z,30.90
2018-07-07T11:28:49.576Z,30.60
2018-07-07T11:31:20.414Z,30.50
2018-07-07T11:33:51.139Z,29.90
2018-07-07T11:36:22.000Z,30.00
2018-07-07T11:38:52.902Z,30.00
2018-07-07T11:41:24.058Z,29.60
2018-07-07T11:43:55.299Z,29.40
2018-07-07T11:46:26.564Z,29.20
2018-07-07T11:48:57.269Z,29.20
2018-07-07T11:51:28.050Z,29.00
2018-07-07T11:53:58.858Z,29.20
2018-07-07T11:56:29.421Z,29.70
2018-07-07T11:59:00.024Z,29.70
2018-07-07T12:01:30.604Z,29.40
2018-07-07T12:04:01.076Z,29.80
2018-07-07T12:06:32.050Z,29.80
2018-07-07T12:09:02.657Z,30.00
2018-07-07T12:11:33.363Z,30.20
2018-07-07T12:14:04.218Z,30.30
2018-07-07T12:16:34.928Z,30.40
2018-07-07T12:19:05.590Z,30.10
2018-07-07T12:21:36.445Z,30.00
2018-07-07T12:24:07.656Z,30.20
2018-07-07T12:26:38.098Z,30.20
2018-07-07T12:29:08.732Z,30.30
2018-07-07T12:31:39.467Z,30.50
2018-07-07T12:34:10.008Z,30.80
2018-07-07T12:36:40.769Z,31.00
2018-07-07T12:39:11.452Z,30.90
2018-07-07T12:44:12.842Z,31.10
2018-07-07T12:46:43.448Z,31.40
2018-07-07T12:49:14.141Z,31.30
2018-07-07T12:51:47.662Z,31.40
2018-07-07T12:56:48.531Z,30.70
2018-07-07T12:59:19.242Z,30.30
2018-07-07T13:01:50.122Z,30.30
2018-07-07T13:04:20.816Z,30.40
2018-07-07T13:06:51.402Z,30.80
2018-07-07T13:09:22.087Z,30.40
2018-07-07T13:11:52.730Z,30.10
2018-07-07T13:14:24.862Z,30.50
2018-07-07T13:16:55.674Z,30.60
2018-07-07T13:19:26.375Z,30.40
2018-07-07T13:21:57.718Z,30.30
2018-07-07T13:26:58.454Z,30.40
2018-07-07T13:29:29.105Z,30.30
2018-07-07T13:31:59.637Z,30.70
2018-07-07T13:34:30.200Z,30.40
2018-07-07T13:37:00.875Z,30.30
2018-07-07T13:42:01.742Z,30.30
2018-07-07T13:44:32.520Z,30.30
2018-07-07T13:47:03.244Z,29.80
2018-07-07T13:49:34.088Z,29.60
2018-07-07T13:52:05.373Z,29.80
2018-07-07T13:54:36.049Z,29.70
2018-07-07T13:57:06.940Z,29.90
2018-07-07T13:59:37.693Z,30.00
2018-07-07T14:02:08.311Z,30.10
2018-07-07T14:04:39.009Z,30.40
2018-07-07T14:07:09.534Z,30.70
2018-07-07T14:09:40.329Z,30.70
2018-07-07T14:12:11.093Z,30.60
2018-07-07T14:14:42.521Z,30.70
2018-07-07T14:17:13.355Z,30.60
2018-07-07T14:19:44.064Z,30.90
2018-07-07T14:22:14.744Z,30.50
2018-07-07T14:24:45.514Z,30.10
2018-07-07T14:27:16.108Z,30.20
2018-07-07T14:29:46.741Z,30.00
2018-07-07T14:32:17.259Z,30.00
2018-07-07T14:34:47.949Z,30.20
2018-07-07T14:37:18.819Z,30.30
2018-07-07T14:42:55.627Z,29.80
2018-07-07T14:45:30.224Z,29.60
2018-07-07T14:48:02.593Z,29.60
2018-07-07T14:50:33.294Z,29.80
2018-07-07T14:53:03.831Z,29.70
2018-07-07T14:55:34.663Z,29.70
2018-07-07T15:00:35.381Z,29.10
2018-07-07T15:03:06.161Z,29.00
2018-07-07T15:05:36.827Z,29.00
2018-07-07T15:08:07.971Z,28.70
2018-07-07T15:10:38.570Z,28.90
2018-07-07T15:13:09.144Z,28.90
2018-07-07T15:15:40.071Z,28.80
2018-07-07T15:18:10.508Z,29.00
2018-07-07T15:20:41.001Z,29.00
2018-07-07T15:23:11.632Z,29.10
2018-07-07T15:25:42.896Z,29.00
2018-07-07T15:28:13.521Z,28.90
2018-07-07T15:30:44.348Z,28.70
2018-07-07T15:33:14.988Z,28.80
2018-07-07T15:35:46.292Z,28.60
2018-07-07T15:38:16.974Z,28.40
2018-07-07T15:43:17.733Z,28.10
2018-07-07T15:45:48.550Z,28.10
2018-07-07T15:48:19.132Z,28.20
2018-07-07T15:50:50.488Z,28.10
2018-07-07T15:53:21.152Z,27.90
2018-07-07T15:55:51.880Z,28.00
2018-07-07T15:58:22.768Z,28.10
2018-07-07T16:00:53.538Z,28.30
2018-07-07T16:03:24.237Z,28.30
2018-07-07T16:05:54.957Z,28.40
2018-07-07T16:08:25.694Z,28.30
2018-07-07T16:10:56.645Z,28.30
2018-07-07T16:13:27.693Z,28.20
2018-07-07T16:15:58.292Z,28.30
2018-07-07T16:23:29.317Z,28.20
2018-07-07T16:25:59.947Z,28.30
2018-07-07T16:28:30.605Z,28.20
2018-07-07T16:31:01.805Z,28.10
2018-07-07T16:33:32.444Z,28.00
2018-07-07T16:36:03.005Z,28.00
2018-07-07T16:38:33.556Z,27.90
2018-07-07T16:41:04.207Z,27.90
2018-07-07T16:43:35.049Z,28.00
2018-07-07T16:46:05.887Z,28.00
2018-07-07T16:48:36.572Z,28.10
2018-07-07T16:51:07.602Z,28.00
2018-07-07T16:53:38.243Z,28.00
2018-07-07T16:56:09.084Z,28.10
2018-07-07T16:58:40.086Z,28.20
2018-07-07T17:01:10.752Z,28.20
2018-07-07T17:03:42.052Z,28.20
2018-07-07T17:06:12.906Z,28.00
2018-07-07T17:08:46.561Z,27.80
2018-07-07T17:13:47.753Z,27.70
2018-07-07T17:16:18.500Z,27.70
2018-07-07T17:18:51.379Z,27.70
2018-07-07T17:21:22.422Z,27.70
2018-07-07T17:23:53.217Z,27.60
2018-07-07T17:26:23.878Z,27.50
2018-07-07T17:28:55.364Z,27.20
2018-07-07T17:31:25.891Z,27.20
2018-07-07T17:33:56.547Z,27.10
2018-07-07T17:36:27.786Z,27.10
2018-07-07T17:38:59.367Z,27.10
2018-07-07T17:41:30.033Z,27.00
2018-07-07T17:44:00.893Z,27.00
2018-07-07T17:46:31.821Z,27.00
2018-07-07T17:49:02.552Z,27.00
2018-07-07T17:51:33.169Z,26.90
2018-07-07T17:54:03.843Z,26.90
2018-07-07T17:56:34.923Z,26.90
2018-07-07T17:59:05.780Z,26.80
2018-07-07T18:01:36.692Z,26.70
2018-07-07T18:04:07.562Z,26.50
2018-07-07T18:06:38.112Z,26.40
2018-07-07T18:09:09.081Z,26.20
2018-07-07T18:11:40.117Z,26.10
2018-07-07T18:14:10.777Z,25.90
2018-07-07T18:19:11.791Z,25.60
2018-07-07T18:24:12.514Z,25.50
2018-07-07T18:26:43.121Z,25.40
2018-07-07T18:31:43.887Z,25.20
2018-07-07T18:34:14.755Z,25.10
2018-07-07T18:36:45.578Z,25.00
2018-07-07T18:39:16.973Z,24.90
2018-07-07T18:41:47.771Z,24.90
2018-07-07T18:44:22.123Z,24.80
2018-07-07T18:46:53.007Z,24.70
2018-07-07T18:49:24.088Z,24.60
2018-07-07T18:51:55.093Z,24.60
2018-07-07T18:54:25.828Z,24.50
2018-07-07T18:56:56.566Z,24.50
2018-07-07T18:59:27.287Z,24.50
2018-07-07T19:01:58.151Z,24.60
2018-07-07T19:04:28.726Z,24.50
2018-07-07T19:06:59.294Z,24.40
2018-07-07T19:09:30.002Z,24.40
2018-07-07T19:12:00.779Z,24.10
2018-07-07T19:14:31.252Z,24.10
2018-07-07T19:17:01.905Z,24.10
2018-07-07T19:19:32.886Z,24.10
2018-07-07T19:22:08.651Z,24.00
2018-07-07T19:24:44.546Z,23.90
2018-07-07T19:27:15.395Z,23.80
2018-07-07T19:29:46.333Z,23.70
2018-07-07T19:32:22.065Z,23.60
2018-07-07T19:34:58.446Z,23.50
2018-07-07T19:39:59.618Z,23.30
2018-07-07T19:42:30.512Z,23.20
2018-07-07T19:45:01.297Z,23.10
2018-07-07T19:47:31.856Z,23.10
2018-07-07T19:50:02.457Z,23.00
2018-07-07T19:55:03.425Z,22.90
2018-07-07T19:57:34.062Z,22.90
2018-07-07T20:00:04.867Z,22.90
2018-07-07T20:05:06.269Z,22.70
2018-07-07T20:07:36.794Z,22.60
2018-07-07T20:10:07.630Z,22.60
2018-07-07T20:12:38.785Z,22.60
2018-07-07T20:15:09.511Z,22.50
2018-07-07T20:18:06.777Z,22.50
2018-07-07T20:20:42.873Z,22.50
2018-07-07T20:23:16.270Z,22.40
2018-07-07T20:25:52.051Z,22.30
2018-07-07T20:28:28.673Z,22.20
2018-07-07T20:30:59.731Z,22.20
2018-07-07T20:33:30.624Z,22.20
2018-07-07T20:36:01.242Z,22.20
2018-07-07T20:38:32.050Z,22.20
2018-07-07T20:41:02.620Z,22.20
2018-07-07T20:43:38.706Z,22.20
2018-07-07T20:46:15.859Z,22.10
2018-07-07T20:48:46.620Z,22.00
2018-07-07T20:51:17.264Z,22.00
2018-07-07T20:53:48.080Z,21.90
2018-07-07T20:56:18.708Z,21.90
2018-07-07T20:58:50.376Z,22.00
2018-07-07T21:02:05.098Z,22.00
2018-07-07T21:04:35.847Z,22.00
2018-07-07T21:07:09.566Z,21.90
2018-07-07T21:09:40.276Z,21.90
2018-07-07T21:12:10.794Z,21.90
2018-07-07T21:17:11.698Z,21.70
2018-07-07T21:19:42.450Z,21.60
2018-07-07T21:22:13.352Z,21.70
2018-07-07T21:24:45.227Z,21.70
2018-07-07T21:27:15.823Z,21.70
2018-07-07T21:29:46.615Z,21.60
2018-07-07T21:32:17.250Z,21.60
2018-07-07T21:34:47.854Z,21.70
2018-07-07T21:37:19.032Z,21.70
2018-07-07T21:39:49.769Z,21.70
2018-07-07T21:42:20.302Z,21.60
2018-07-07T21:44:51.377Z,21.50
2018-07-07T21:47:22.055Z,21.50
2018-07-07T21:49:52.694Z,21.50
2018-07-07T21:52:24.013Z,21.50
2018-07-07T21:54:54.583Z,21.50
2018-07-07T21:57:30.222Z,21.60
2018-07-07T22:00:00.849Z,21.40
2018-07-07T22:02:36.614Z,21.50
2018-07-07T22:05:12.716Z,21.50
2018-07-07T22:07:43.462Z,21.40
2018-07-07T22:10:14.155Z,21.40
2018-07-07T22:12:44.744Z,21.40
2018-07-07T22:15:15.421Z,21.40
2018-07-07T22:17:46.246Z,21.40
2018-07-07T22:20:37.308Z,21.30
2018-07-07T22:23:08.150Z,21.30
2018-07-07T22:25:38.843Z,21.30
2018-07-07T22:30:40.077Z,21.20
2018-07-07T22:33:15.929Z,21.20
2018-07-07T22:35:51.613Z,21.20
2018-07-07T22:38:28.291Z,21.10
2018-07-07T22:40:59.329Z,21.00
2018-07-07T22:46:01.652Z,21.00
2018-07-07T22:48:33.172Z,21.00
2018-07-07T22:56:05.151Z,20.90
2018-07-07T22:58:35.693Z,20.90
2018-07-07T23:01:06.395Z,20.90
2018-07-07T23:03:37.037Z,20.90
2018-07-07T23:06:07.685Z,20.90
2018-07-07T23:08:38.328Z,20.70
2018-07-07T23:11:09.055Z,20.60
2018-07-07T23:13:39.692Z,20.50
2018-07-07T23:18:40.512Z,20.30
2018-07-07T23:21:11.180Z,20.30
2018-07-07T23:23:41.947Z,20.30
2018-07-07T23:26:12.617Z,20.40
2018-07-07T23:28:43.479Z,20.40
2018-07-07T23:31:14.210Z,20.40
2018-07-07T23:33:44.850Z,20.40
2018-07-07T23:36:15.641Z,20.40
2018-07-07T23:38:46.246Z,20.40
2018-07-07T23:41:16.850Z,20.40
2018-07-07T23:43:47.520Z,20.20
2018-07-07T23:48:48.187Z,20.20
2018-07-07T23:51:19.371Z,20.10
2018-07-07T23:53:49.964Z,20.00
2018-07-07T23:56:20.588Z,19.80
2018-07-07T23:58:51.169Z,20.00
